sensor_id;sensor_type;location;lat;lon;timestamp;pressure;altitude;pressure_sealevel;temperature;humidity
50364;BME280;36272;59.400;17.982;2022-08-07T13:40:21;101639.22;;;27.49;49.31
50364;BME280;36272;59.400;17.982;2022-08-07T13:45:29;101621.63;;;28.08;47.25
50364;BME280;36272;59.400;17.982;2022-08-07T13:50:33;101636.13;;;28.49;45.96
50364;BME280;36272;59.400;17.982;2022-08-07T13:55:40;101631.09;;;28.16;45.37
50364;BME280;36272;59.400;17.982;2022-08-07T14:00:43;101629.88;;;28.08;45.61
50364;BME280;36272;59.400;17.982;2022-08-07T14:05:46;101623.47;;;28.13;45.56
50364;BME280;36272;59.400;17.982;2022-08-07T14:10:51;101626.13;;;28.79;45.04
50364;BME280;36272;59.400;17.982;2022-08-07T14:16:00;101615.38;;;29.13;43.80
50364;BME280;36272;59.400;17.982;2022-08-07T14:21:12;101629.34;;;28.46;44.10
50364;BME280;36272;59.400;17.982;2022-08-07T14:26:19;101610.84;;;28.29;45.44
50364;BME280;36272;59.400;17.982;2022-08-07T14:31:25;101604.78;;;27.92;45.42
50364;BME280;36272;59.400;17.982;2022-08-07T14:36:29;101612.50;;;27.41;45.94
50364;BME280;36272;59.400;17.982;2022-08-07T14:41:33;101609.50;;;27.20;46.60
50364;BME280;36272;59.400;17.982;2022-08-07T14:46:40;101609.94;;;27.85;45.94
50364;BME280;36272;59.400;17.982;2022-08-07T14:51:43;101607.78;;;28.13;45.44
50364;BME280;36272;59.400;17.982;2022-08-07T14:56:49;101600.06;;;28.59;44.59
50364;BME280;36272;59.400;17.982;2022-08-07T15:01:51;101617.38;;;28.42;45.03
50364;BME280;36272;59.400;17.982;2022-08-07T15:07:19;101607.09;;;28.08;45.36
50364;BME280;36272;59.400;17.982;2022-08-07T15:12:33;101617.50;;;27.39;45.48
50364;BME280;36272;59.400;17.982;2022-08-07T15:17:40;101605.59;;;26.89;45.81
50364;BME280;36272;59.400;17.982;2022-08-07T15:22:48;101603.31;;;26.68;46.52
50364;BME280;36272;59.400;17.982;2022-08-07T15:27:59;101604.44;;;26.67;46.00
50364;BME280;36272;59.400;17.982;2022-08-07T15:33:03;101601.72;;;27.13;45.95
50364;BME280;36272;59.400;17.982;2022-08-07T15:38:06;101604.88;;;27.29;45.03
50364;BME280;36272;59.400;17.982;2022-08-07T15:43:15;101599.00;;;27.22;44.46
50364;BME280;36272;59.400;17.982;2022-08-07T15:48:22;101601.16;;;27.34;43.83
50364;BME280;36272;59.400;17.982;2022-08-07T15:53:40;101596.06;;;27.18;43.66
50364;BME280;36272;59.400;17.982;2022-08-07T16:03:55;101601.53;;;26.50;43.72
50364;BME280;36272;59.400;17.982;2022-08-07T16:14:58;101610.56;;;25.58;44.19
50364;BME280;36272;59.400;17.982;2022-08-07T16:57:52;101610.78;;;23.94;46.45
50364;BME280;36272;59.400;17.982;2022-08-07T17:03:16;101605.66;;;23.63;46.66
50364;BME280;36272;59.400;17.982;2022-08-07T17:08:47;101615.16;;;23.41;46.46
50364;BME280;36272;59.400;17.982;2022-08-07T17:14:04;101615.28;;;23.26;46.67
50364;BME280;36272;59.400;17.982;2022-08-07T17:30:08;101614.22;;;22.87;47.80
50364;BME280;36272;59.400;17.982;2022-08-07T17:35:17;101613.44;;;22.81;48.05
50364;BME280;36272;59.400;17.982;2022-08-07T17:51:19;101623.97;;;22.53;47.48
50364;BME280;36272;59.400;17.982;2022-08-07T17:56:34;101626.50;;;22.34;47.39
50364;BME280;36272;59.400;17.982;2022-08-07T18:01:45;101635.00;;;22.22;47.73
50364;BME280;36272;59.400;17.982;2022-08-07T18:06:51;101636.41;;;22.09;48.37
50364;BME280;36272;59.400;17.982;2022-08-07T18:12:16;101629.66;;;21.96;48.56
50364;BME280;36272;59.400;17.982;2022-08-07T18:17:34;101636.78;;;21.82;49.08
50364;BME280;36272;59.400;17.982;2022-08-07T18:22:53;101637.59;;;21.77;49.11
50364;BME280;36272;59.400;17.982;2022-08-07T18:28:07;101634.34;;;21.65;49.00
50364;BME280;36272;59.400;17.982;2022-08-07T19:05:56;101688.75;;;21.03;51.55
50364;BME280;36272;59.400;17.982;2022-08-07T19:11:09;101670.50;;;20.88;52.05
50364;BME280;36272;59.400;17.982;2022-08-07T19:16:33;101671.84;;;20.80;52.60
50364;BME280;36272;59.400;17.982;2022-08-07T19:21:44;101681.25;;;20.62;52.74
50364;BME280;36272;59.400;17.982;2022-08-07T19:26:51;101683.41;;;20.49;53.49
50364;BME280;36272;59.400;17.982;2022-08-07T19:31:57;101682.78;;;20.32;53.48
50364;BME280;36272;59.400;17.982;2022-08-07T19:37:03;101702.56;;;20.17;53.94
50364;BME280;36272;59.400;17.982;2022-08-07T19:42:08;101692.97;;;20.04;54.54
50364;BME280;36272;59.400;17.982;2022-08-07T19:47:15;101698.06;;;19.95;54.96
50364;BME280;36272;59.400;17.982;2022-08-07T19:52:25;101692.28;;;19.86;55.14
50364;BME280;36272;59.400;17.982;2022-08-07T19:57:37;101698.47;;;19.76;55.32
50364;BME280;36272;59.400;17.982;2022-08-07T20:02:42;101696.22;;;19.68;55.76
50364;BME280;36272;59.400;17.982;2022-08-07T20:07:46;101708.91;;;19.57;56.04
50364;BME280;36272;59.400;17.982;2022-08-07T20:12:50;101710.69;;;19.46;56.30
50364;BME280;36272;59.400;17.982;2022-08-07T20:17:54;101716.84;;;19.37;56.54
50364;BME280;36272;59.400;17.982;2022-08-07T20:23:00;101709.69;;;19.25;57.20
50364;BME280;36272;59.400;17.982;2022-08-07T20:28:08;101706.34;;;19.13;57.37
50364;BME280;36272;59.400;17.982;2022-08-07T20:33:11;101712.72;;;19.01;57.29
50364;BME280;36272;59.400;17.982;2022-08-07T20:38:18;101710.94;;;18.90;57.86
50364;BME280;36272;59.400;17.982;2022-08-07T20:43:24;101710.81;;;18.80;58.46
50364;BME280;36272;59.400;17.982;2022-08-07T20:48:28;101710.97;;;18.68;58.48
50364;BME280;36272;59.400;17.982;2022-08-07T20:53:34;101716.81;;;18.60;59.32
50364;BME280;36272;59.400;17.982;2022-08-07T20:58:38;101718.34;;;18.50;59.56
50364;BME280;36272;59.400;17.982;2022-08-07T21:03:44;101712.53;;;18.41;59.94
50364;BME280;36272;59.400;17.982;2022-08-07T21:08:51;101738.47;;;18.37;59.98
50364;BME280;36272;59.400;17.982;2022-08-07T21:13:59;101720.59;;;18.36;60.30
50364;BME280;36272;59.400;17.982;2022-08-07T21:19:07;101721.59;;;18.30;60.38
50364;BME280;36272;59.400;17.982;2022-08-07T21:24:17;101728.31;;;18.27;60.58
50364;BME280;36272;59.400;17.982;2022-08-07T21:29:31;101725.88;;;18.26;60.74
50364;BME280;36272;59.400;17.982;2022-08-07T21:34:41;101725.81;;;18.21;60.91
50364;BME280;36272;59.400;17.982;2022-08-07T21:39:52;101737.13;;;18.18;61.32
50364;BME280;36272;59.400;17.982;2022-08-07T21:50:42;101737.53;;;18.09;61.84
50364;BME280;36272;59.400;17.982;2022-08-07T21:55:55;101748.28;;;18.04;62.34
50364;BME280;36272;59.400;17.982;2022-08-07T22:01:05;101747.03;;;17.95;62.42
50364;BME280;36272;59.400;17.982;2022-08-07T22:06:25;101749.91;;;17.88;62.82
50364;BME280;36272;59.400;17.982;2022-08-07T22:11:28;101766.16;;;17.88;62.90
50364;BME280;36272;59.400;17.982;2022-08-07T22:16:46;101744.69;;;17.81;63.32
50364;BME280;36272;59.400;17.982;2022-08-07T22:22:11;101746.22;;;17.77;63.69
50364;BME280;36272;59.400;17.982;2022-08-07T22:27:22;101760.81;;;17.76;64.02
50364;BME280;36272;59.400;17.982;2022-08-07T22:32:38;101754.75;;;17.69;64.15
50364;BME280;36272;59.400;17.982;2022-08-07T22:43:08;101758.69;;;17.61;64.97
50364;BME280;36272;59.400;17.982;2022-08-07T23:10:41;101772.25;;;17.49;65.93
50364;BME280;36272;59.400;17.982;2022-08-07T23:21:18;101769.13;;;17.41;66.69
50364;BME280;36272;59.400;17.982;2022-08-07T23:26:38;101774.78;;;17.39;67.09
50364;BME280;36272;59.400;17.982;2022-08-07T23:32:02;101772.91;;;17.39;67.06
50364;BME280;36272;59.400;17.982;2022-08-07T23:37:23;101769.44;;;17.44;67.29
50364;BME280;36272;59.400;17.982;2022-08-07T23:48:08;101777.66;;;17.49;67.59
